Time;durP1;ratioP1;P1;durP2;ratioP2;P2;SDS_P1;SDS_P2;PMS_P1;PMS_P2;Temp;Humidity;BMP_temperature;BMP_pressure;BME280_temperature;BME280_humidity;BME280_pressure;Samples;Min_cycle;Max_cycle;Signal;HPM_P1;HPM_P2
2022/10/23 00:01:45;;;;;;;16.20;13.10;;;12.30;99.90;;;;;;5072673;28;20246;-56
2022/10/23 00:04:16;;;;;;;19.13;15.20;;;12.30;99.90;;;;;;5073265;28;20582;-57
2022/10/23 00:06:47;;;;;;;16.80;14.13;;;12.40;99.90;;;;;;5073804;28;20702;-57
2022/10/23 00:09:19;;;;;;;18.10;13.40;;;12.40;99.90;;;;;;5073557;28;20226;-57
2022/10/23 00:11:49;;;;;;;16.43;13.80;;;12.40;99.90;;;;;;5076006;28;20229;-56
2022/10/23 00:14:20;;;;;;;16.90;14.10;;;12.40;99.90;;;;;;5073637;28;20705;-57
2022/10/23 00:16:49;;;;;;;18.80;14.40;;;12.40;99.90;;;;;;5073265;28;20309;-56
2022/10/23 00:19:18;;;;;;;19.53;14.50;;;12.30;99.90;;;;;;5073386;28;20231;-57
2022/10/23 00:21:49;;;;;;;19.37;14.47;;;12.30;99.90;;;;;;5072980;28;20247;-56
2022/10/23 00:24:19;;;;;;;15.70;14.07;;;12.20;99.90;;;;;;5073194;28;20218;-56
2022/10/23 00:26:50;;;;;;;14.93;13.43;;;12.30;99.90;;;;;;5073069;28;20261;-56
2022/10/23 00:29:20;;;;;;;17.47;13.77;;;12.30;99.90;;;;;;5071895;28;20229;-56
2022/10/23 00:31:50;;;;;;;15.77;14.07;;;12.30;99.90;;;;;;5072045;28;20230;-56
2022/10/23 00:34:19;;;;;;;17.60;13.90;;;12.30;99.90;;;;;;5073111;28;20584;-57
2022/10/23 00:36:50;;;;;;;16.60;14.20;;;12.20;99.90;;;;;;5072846;28;20275;-56
2022/10/23 00:39:19;;;;;;;15.53;13.27;;;12.20;99.90;;;;;;5071797;28;20229;-57
2022/10/23 00:41:49;;;;;;;17.20;13.57;;;12.20;99.90;;;;;;5075526;28;20225;-56
2022/10/23 00:44:55;;;;;;;15.67;12.73;;;12.20;99.90;;;;;;5072940;28;20224;-56
2022/10/23 00:47:25;;;;;;;18.67;15.77;;;12.30;99.90;;;;;;5072846;28;20782;-55
2022/10/23 00:49:54;;;;;;;17.90;14.27;;;12.30;99.90;;;;;;5072841;28;20225;-57
2022/10/23 00:52:25;;;;;;;17.47;13.50;;;12.30;99.90;;;;;;5072659;28;20226;-56
2022/10/23 00:54:56;;;;;;;16.97;13.57;;;12.30;99.90;;;;;;5072648;28;20291;-56
2022/10/23 00:57:25;;;;;;;16.37;13.80;;;12.30;99.90;;;;;;5072487;28;20225;-56
2022/10/23 01:00:00;;;;;;;16.30;14.57;;;12.30;99.90;;;;;;5072210;28;20224;-56
2022/10/23 01:02:33;;;;;;;17.57;14.00;;;12.20;99.90;;;;;;5072257;28;20328;-57
2022/10/23 01:05:04;;;;;;;15.03;13.43;;;12.20;99.90;;;;;;5072710;28;20252;-57
2022/10/23 01:07:43;;;;;;;16.50;13.40;;;12.30;99.90;;;;;;5071539;28;20647;-57
2022/10/23 01:10:17;;;;;;;15.90;13.80;;;12.30;99.90;;;;;;5071695;28;20236;-56
2022/10/23 01:12:51;;;;;;;16.20;13.73;;;12.30;99.90;;;;;;5073761;28;20241;-56
2022/10/23 01:15:26;;;;;;;15.17;13.20;;;12.20;99.90;;;;;;5072635;28;20688;-57
2022/10/23 01:17:59;;;;;;;16.13;13.57;;;12.10;99.90;;;;;;5072609;28;20584;-57
2022/10/23 01:20:36;;;;;;;19.57;13.33;;;12.10;99.90;;;;;;5087840;28;20221;-56
2022/10/23 01:23:26;;;;;;;15.93;14.13;;;12.30;99.90;;;;;;5087623;28;20222;-57
2022/10/23 01:26:18;;;;;;;15.53;13.53;;;12.20;99.90;;;;;;5071225;28;20229;-56
2022/10/23 01:28:52;;;;;;;16.53;13.63;;;12.10;99.90;;;;;;5071157;28;20696;-56
2022/10/23 01:31:27;;;;;;;14.80;13.40;;;12.10;99.90;;;;;;5067271;28;20317;-57
2022/10/23 01:34:03;;;;;;;17.80;13.83;;;12.10;99.90;;;;;;5052326;28;20219;-56
2022/10/23 01:36:32;;;;;;;15.50;14.00;;;12.10;99.90;;;;;;5067614;28;20256;-56
2022/10/23 01:39:06;;;;;;;15.00;13.20;;;12.10;99.90;;;;;;5051072;28;20230;-57
2022/10/23 01:41:39;;;;;;;14.97;13.23;;;12.10;99.90;;;;;;5063549;28;20233;-56
2022/10/23 01:44:14;;;;;;;14.67;13.07;;;12.00;99.90;;;;;;5079311;28;20275;-56
2022/10/23 01:46:46;;;;;;;16.67;13.07;;;12.00;99.90;;;;;;5070929;28;20233;-57
2022/10/23 01:49:15;;;;;;;17.10;15.07;;;12.10;99.90;;;;;;5069219;28;20244;-56
2022/10/23 01:51:49;;;;;;;17.60;13.97;;;12.00;99.90;;;;;;5070455;28;20697;-56
2022/10/23 01:54:21;;;;;;;15.37;13.87;;;12.00;99.90;;;;;;5079186;28;20245;-56
2022/10/23 01:56:51;;;;;;;17.90;13.87;;;12.00;99.90;;;;;;5070840;28;20230;-56
2022/10/23 01:59:29;;;;;;;16.53;14.10;;;12.00;99.90;;;;;;5070949;28;20229;-57
2022/10/23 02:01:59;;;;;;;16.73;12.93;;;12.00;99.90;;;;;;5083842;28;20283;-56
2022/10/23 02:04:30;;;;;;;17.83;15.47;;;12.00;99.90;;;;;;5084192;28;20230;-56
2022/10/23 02:06:58;;;;;;;15.40;13.70;;;12.00;99.90;;;;;;5084420;28;20233;-57
2022/10/23 02:09:27;;;;;;;16.87;12.87;;;12.00;99.90;;;;;;5050658;28;20229;-56
2022/10/23 02:11:59;;;;;;;15.67;13.83;;;12.00;99.90;;;;;;5067289;28;20231;-56
2022/10/23 02:14:39;;;;;;;15.27;13.67;;;12.00;99.90;;;;;;5067175;28;20978;-56
2022/10/23 02:17:15;;;;;;;16.40;14.00;;;12.00;99.90;;;;;;5050682;28;20225;-56
2022/10/23 02:19:50;;;;;;;16.80;12.93;;;11.90;99.90;;;;;;5068313;28;20229;-56
2022/10/23 02:22:24;;;;;;;17.33;14.80;;;12.00;99.90;;;;;;5067018;28;20270;-56
2022/10/23 02:24:55;;;;;;;18.40;14.93;;;12.00;99.90;;;;;;5067910;28;20218;-56
2022/10/23 02:27:30;;;;;;;16.37;14.63;;;12.00;99.90;;;;;;5055645;28;20217;-57
2022/10/23 02:30:04;;;;;;;18.53;15.27;;;11.90;99.90;;;;;;5055559;28;20300;-57
2022/10/23 02:32:34;;;;;;;16.40;14.80;;;11.80;99.90;;;;;;5054939;28;20232;-56
2022/10/23 02:35:03;;;;;;;17.17;15.37;;;11.90;99.90;;;;;;5055369;28;20716;-56
2022/10/23 02:37:32;;;;;;;17.10;15.30;;;11.90;99.90;;;;;;5055134;28;20280;-56
2022/10/23 02:40:03;;;;;;;16.10;14.30;;;11.80;99.90;;;;;;5054090;28;20228;-56
2022/10/23 02:42:48;;;;;;;18.40;15.73;;;11.80;99.90;;;;;;5075234;28;20225;-56
2022/10/23 02:45:24;;;;;;;19.23;15.50;;;11.80;99.90;;;;;;5054012;28;20236;-56
2022/10/23 02:47:56;;;;;;;20.67;15.57;;;11.80;99.90;;;;;;5055223;28;20217;-57
2022/10/23 02:50:32;;;;;;;17.90;15.90;;;11.70;99.90;;;;;;5066775;28;20228;-55
2022/10/23 02:53:07;;;;;;;17.40;15.53;;;11.80;99.90;;;;;;5073547;28;20230;-56
2022/10/23 02:55:47;;;;;;;18.27;16.27;;;11.70;99.90;;;;;;5072727;28;20256;-57
2022/10/23 02:58:24;;;;;;;18.03;15.57;;;11.70;99.90;;;;;;5073427;28;20233;-56
2022/10/23 03:00:58;;;;;;;21.33;16.73;;;11.70;99.90;;;;;;5073319;28;20236;-57
2022/10/23 03:03:31;;;;;;;20.37;16.60;;;11.70;99.90;;;;;;5073513;28;20299;-56
2022/10/23 03:05:59;;;;;;;21.10;16.97;;;11.60;99.90;;;;;;5073611;28;20660;-57
2022/10/23 03:08:28;;;;;;;21.27;16.37;;;11.70;99.90;;;;;;5073408;28;20226;-57
2022/10/23 03:10:56;;;;;;;22.03;16.97;;;11.60;99.90;;;;;;5076225;28;20236;-56
2022/10/23 03:13:27;;;;;;;19.03;15.90;;;11.60;99.90;;;;;;5086832;28;20647;-56
2022/10/23 03:15:57;;;;;;;17.87;15.97;;;11.60;99.90;;;;;;5054656;28;20225;-56
2022/10/23 03:18:27;;;;;;;20.37;15.80;;;11.50;99.90;;;;;;5053178;28;20236;-56
2022/10/23 03:20:58;;;;;;;20.93;15.53;;;11.50;99.90;;;;;;5070867;28;20326;-56
2022/10/23 03:23:26;;;;;;;18.17;15.57;;;11.50;99.90;;;;;;5072376;28;20228;-55
2022/10/23 03:25:55;;;;;;;16.83;15.03;;;11.50;99.90;;;;;;5073136;28;20225;-56
2022/10/23 03:28:34;;;;;;;18.77;14.93;;;11.50;99.90;;;;;;5073070;28;20279;-56
2022/10/23 03:31:04;;;;;;;18.13;15.43;;;11.50;99.90;;;;;;5089861;28;20263;-56
2022/10/23 03:33:32;;;;;;;18.20;16.33;;;11.50;99.90;;;;;;5073233;28;20229;-56
2022/10/23 03:36:08;;;;;;;17.53;15.50;;;11.50;99.90;;;;;;5072830;28;20604;-56
2022/10/23 03:38:36;;;;;;;18.20;15.40;;;11.50;99.90;;;;;;5074072;28;20224;-56
2022/10/23 03:41:05;;;;;;;19.60;15.67;;;11.40;99.90;;;;;;5075650;28;20231;-57
2022/10/23 03:43:33;;;;;;;17.10;14.90;;;11.40;99.90;;;;;;5073958;28;20217;-56
2022/10/23 03:46:07;;;;;;;18.37;15.33;;;11.40;99.90;;;;;;5089716;28;20455;-57
2022/10/23 03:48:37;;;;;;;16.70;14.87;;;11.40;99.90;;;;;;5072623;28;20261;-56
2022/10/23 03:51:05;;;;;;;17.20;15.10;;;11.40;99.90;;;;;;5079989;28;20260;-57
2022/10/23 03:53:33;;;;;;;15.40;13.80;;;11.30;99.90;;;;;;5071643;28;20269;-56
2022/10/23 03:56:04;;;;;;;16.90;15.10;;;11.30;99.90;;;;;;5072503;28;20592;-57
2022/10/23 03:58:33;;;;;;;14.13;12.63;;;11.30;99.90;;;;;;5089330;28;20297;-56
2022/10/23 04:01:03;;;;;;;17.50;14.77;;;11.30;99.90;;;;;;5072033;28;20236;-56
2022/10/23 04:03:31;;;;;;;15.67;13.97;;;11.20;99.90;;;;;;5073906;28;20560;-56
2022/10/23 04:05:59;;;;;;;16.57;14.40;;;11.20;99.90;;;;;;5072430;28;20222;-56
2022/10/23 04:08:27;;;;;;;17.00;13.93;;;11.20;99.90;;;;;;5072236;28;20228;-55
2022/10/23 04:10:55;;;;;;;15.40;12.97;;;11.20;99.90;;;;;;5075799;28;20231;-56
2022/10/23 04:13:44;;;;;;;15.70;14.07;;;11.20;99.90;;;;;;5072009;28;20247;-56
2022/10/23 04:16:13;;;;;;;15.17;13.57;;;11.10;99.90;;;;;;5071704;28;20299;-56
2022/10/23 04:18:43;;;;;;;17.83;13.33;;;11.10;99.90;;;;;;5070938;28;20220;-57
2022/10/23 04:21:15;;;;;;;17.37;14.30;;;11.10;99.90;;;;;;5072133;28;20592;-56
2022/10/23 04:23:44;;;;;;;18.17;13.13;;;11.10;99.90;;;;;;5065062;28;20232;-55
2022/10/23 04:26:15;;;;;;;15.00;12.97;;;11.10;99.90;;;;;;5063151;28;20237;-56
2022/10/23 04:28:48;;;;;;;15.47;12.87;;;11.00;99.90;;;;;;5050456;28;20231;-56
2022/10/23 04:31:20;;;;;;;13.57;11.97;;;10.90;99.90;;;;;;5074232;28;20317;-56
2022/10/23 04:33:52;;;;;;;14.70;12.90;;;10.90;99.90;;;;;;5053110;28;20270;-55
2022/10/23 04:36:31;;;;;;;15.03;12.80;;;10.80;99.90;;;;;;5054677;28;20268;-56
2022/10/23 04:39:08;;;;;;;16.60;12.27;;;10.80;99.90;;;;;;5055122;28;20289;-56
2022/10/23 04:41:40;;;;;;;17.03;13.30;;;10.80;99.90;;;;;;5070912;28;20239;-56
2022/10/23 04:44:08;;;;;;;12.87;11.47;;;10.80;99.90;;;;;;5094356;28;20582;-56
2022/10/23 04:46:39;;;;;;;13.03;11.73;;;10.80;99.90;;;;;;5112087;28;20680;-56
2022/10/23 04:49:09;;;;;;;13.63;11.67;;;10.80;99.90;;;;;;5109416;28;20226;-56
2022/10/23 04:51:46;;;;;;;15.03;12.43;;;10.70;99.90;;;;;;5101480;28;20234;-56
2022/10/23 04:54:36;;;;;;;17.20;12.80;;;10.80;99.90;;;;;;5104682;28;20249;-56
2022/10/23 04:57:27;;;;;;;14.93;12.20;;;10.80;99.90;;;;;;5075429;28;20261;-56
2022/10/23 05:00:01;;;;;;;17.93;12.67;;;10.80;99.90;;;;;;5074908;28;20306;-57
2022/10/23 05:02:37;;;;;;;15.77;12.43;;;10.90;99.90;;;;;;5074242;28;20236;-57
2022/10/23 05:05:06;;;;;;;15.13;12.43;;;10.80;99.90;;;;;;5093910;28;20222;-56
2022/10/23 05:07:35;;;;;;;17.90;12.07;;;10.80;99.90;;;;;;5112976;28;20219;-56
2022/10/23 05:10:22;;;;;;;17.37;12.67;;;10.80;99.90;;;;;;5088818;28;20277;-55
2022/10/23 05:13:01;;;;;;;16.13;11.47;;;10.80;99.90;;;;;;5091373;28;20230;-56
2022/10/23 05:15:29;;;;;;;15.33;12.97;;;10.80;99.90;;;;;;5074491;28;20231;-56
2022/10/23 05:18:04;;;;;;;16.97;12.83;;;10.70;99.90;;;;;;5074554;28;20230;-56
2022/10/23 05:20:36;;;;;;;17.63;12.87;;;10.80;99.90;;;;;;5074387;28;20707;-56
2022/10/23 05:26:07;;;;;;;13.70;11.83;;;10.70;99.90;;;;;;5096853;28;20222;-56
2022/10/23 05:28:36;;;;;;;16.63;11.73;;;10.70;99.90;;;;;;5088405;28;20238;-56
2022/10/23 05:31:06;;;;;;;14.47;11.60;;;10.70;99.90;;;;;;5065956;28;20238;-56
2022/10/23 05:33:39;;;;;;;13.33;11.77;;;10.70;99.90;;;;;;5075380;28;20254;-56
2022/10/23 05:36:09;;;;;;;14.67;11.60;;;10.70;99.90;;;;;;5077273;28;20235;-56
2022/10/23 05:38:37;;;;;;;14.27;11.30;;;10.60;99.90;;;;;;5093559;28;20297;-56
2022/10/23 05:41:13;;;;;;;14.50;11.57;;;10.70;99.90;;;;;;5077043;28;20258;-56
2022/10/23 05:43:41;;;;;;;14.63;11.37;;;10.60;99.90;;;;;;5095557;28;20221;-56
2022/10/23 05:46:29;;;;;;;15.10;10.83;;;10.50;99.90;;;;;;5068029;28;20263;-56
2022/10/23 05:49:16;;;;;;;13.30;10.83;;;10.60;99.90;;;;;;5090694;28;20275;-56
2022/10/23 05:51:52;;;;;;;12.50;11.00;;;10.50;99.90;;;;;;5093901;28;20211;-56
2022/10/23 05:54:31;;;;;;;15.13;10.97;;;10.50;99.90;;;;;;5106337;28;20236;-56
2022/10/23 05:57:15;;;;;;;13.23;10.40;;;10.50;99.90;;;;;;5091504;28;20321;-56
2022/10/23 05:59:50;;;;;;;15.03;10.30;;;10.40;99.90;;;;;;5098334;28;20214;-56
2022/10/23 06:02:27;;;;;;;14.23;10.63;;;10.40;99.90;;;;;;5098914;28;20233;-56
2022/10/23 06:05:09;;;;;;;13.07;10.47;;;10.50;99.90;;;;;;5105843;28;20229;-56
2022/10/23 06:07:40;;;;;;;12.07;10.23;;;10.50;99.90;;;;;;5116680;28;20309;-56
2022/10/23 06:10:10;;;;;;;11.10;9.97;;;10.50;99.90;;;;;;5115114;28;20232;-56
2022/10/23 06:12:43;;;;;;;14.03;9.77;;;10.50;99.90;;;;;;5104606;28;20259;-55
2022/10/23 06:15:15;;;;;;;13.53;10.33;;;10.50;99.90;;;;;;5057744;28;20663;-56
2022/10/23 06:18:05;;;;;;;12.93;10.20;;;10.50;99.90;;;;;;5103591;28;20226;-56
2022/10/23 06:20:38;;;;;;;12.43;10.13;;;10.50;99.90;;;;;;5084190;28;20226;-56
2022/10/23 06:23:15;;;;;;;14.10;9.83;;;10.50;99.90;;;;;;5103920;28;20232;-56
2022/10/23 06:26:06;;;;;;;10.97;9.77;;;10.50;99.90;;;;;;5101636;28;20626;-56
2022/10/23 06:28:45;;;;;;;16.10;10.03;;;10.50;99.90;;;;;;5094439;28;20224;-56
2022/10/23 06:31:17;;;;;;;12.20;10.23;;;10.50;99.90;;;;;;5096534;28;20238;-56
2022/10/23 06:33:46;;;;;;;15.17;10.33;;;10.50;99.90;;;;;;5077222;28;20235;-56
2022/10/23 06:36:15;;;;;;;11.87;10.17;;;10.50;99.90;;;;;;5101614;28;20236;-56
2022/10/23 06:38:43;;;;;;;12.13;10.10;;;10.50;99.90;;;;;;5095553;28;20222;-56
2022/10/23 06:41:14;;;;;;;15.17;9.80;;;10.50;99.90;;;;;;5095432;28;20236;-56
2022/10/23 06:43:47;;;;;;;14.40;10.07;;;10.50;99.90;;;;;;5094173;28;20238;-56
2022/10/23 06:46:20;;;;;;;12.97;10.00;;;10.50;99.90;;;;;;5079840;28;20276;-56
2022/10/23 06:49:03;;;;;;;11.80;9.40;;;10.50;99.90;;;;;;5105235;28;20229;-56
2022/10/23 06:51:37;;;;;;;11.87;10.00;;;10.50;99.90;;;;;;5097446;28;20795;-56
2022/10/23 06:54:10;;;;;;;11.90;9.57;;;10.50;99.90;;;;;;5077154;28;20599;-55
2022/10/23 06:56:50;;;;;;;11.43;9.37;;;10.60;99.90;;;;;;5095153;28;20696;-56
2022/10/23 06:59:23;;;;;;;12.10;9.77;;;10.60;99.90;;;;;;5077071;28;20220;-56
2022/10/23 07:01:52;;;;;;;12.63;9.27;;;10.60;99.90;;;;;;5091768;28;20259;-56
2022/10/23 07:04:22;;;;;;;10.00;9.00;;;10.60;99.90;;;;;;5098763;28;20319;-56
2022/10/23 07:06:54;;;;;;;10.20;8.67;;;10.60;99.90;;;;;;5095998;28;20632;-56
2022/10/23 07:09:25;;;;;;;12.83;9.50;;;10.60;99.90;;;;;;5090520;28;20220;-55
2022/10/23 07:11:54;;;;;;;16.37;10.67;;;10.70;99.90;;;;;;5111838;28;20223;-56
2022/10/23 07:14:30;;;;;;;11.87;9.47;;;10.70;99.90;;;;;;5091534;28;20242;-56
2022/10/23 07:17:00;;;;;;;12.40;9.57;;;10.80;99.90;;;;;;5096078;28;20239;-56
2022/10/23 07:19:29;;;;;;;11.50;8.83;;;10.90;99.90;;;;;;5113503;28;20224;-56
2022/10/23 07:22:01;;;;;;;13.97;9.87;;;10.90;99.90;;;;;;5088392;28;20227;-56
2022/10/23 07:24:39;;;;;;;12.67;11.17;;;10.90;99.90;;;;;;5113741;28;20226;-56
2022/10/23 07:27:18;;;;;;;13.90;10.73;;;11.10;99.90;;;;;;5083135;28;20586;-56
2022/10/23 07:29:53;;;;;;;13.33;10.13;;;11.10;99.90;;;;;;5093287;28;20703;-56
2022/10/23 07:32:22;;;;;;;16.67;10.00;;;11.20;99.90;;;;;;5076081;28;20327;-57
2022/10/23 07:35:20;;;;;;;13.90;10.60;;;11.30;99.90;;;;;;5076451;28;20250;-56
2022/10/23 07:37:56;;;;;;;15.40;10.13;;;11.40;99.90;;;;;;5076414;28;20587;-57
2022/10/23 07:40:24;;;;;;;13.67;11.37;;;11.60;99.90;;;;;;5076258;28;20611;-54
2022/10/23 07:42:56;;;;;;;13.53;11.47;;;11.80;99.90;;;;;;5076386;28;20691;-56
2022/10/23 07:45:25;;;;;;;16.63;12.23;;;11.90;99.90;;;;;;5076240;28;20232;-56
2022/10/23 07:47:53;;;;;;;16.43;11.17;;;12.10;99.90;;;;;;5094385;28;20214;-55
2022/10/23 07:50:25;;;;;;;16.37;11.30;;;12.20;99.90;;;;;;5075998;28;20750;-55
2022/10/23 07:52:56;;;;;;;14.30;11.07;;;12.30;99.90;;;;;;5106231;28;20223;-56
2022/10/23 07:55:31;;;;;;;13.70;10.10;;;12.50;99.90;;;;;;5113500;28;20223;-56
2022/10/23 07:58:08;;;;;;;12.57;9.97;;;12.60;99.90;;;;;;5113124;28;20239;-56
2022/10/23 08:00:44;;;;;;;14.27;9.73;;;12.70;99.90;;;;;;5095732;28;20231;-56
2022/10/23 08:03:22;;;;;;;11.00;9.80;;;12.80;99.90;;;;;;5113134;28;20273;-57
2022/10/23 08:05:51;;;;;;;12.23;9.37;;;13.00;99.90;;;;;;5095985;28;20224;-56
2022/10/23 08:08:21;;;;;;;12.20;9.30;;;13.00;99.90;;;;;;5114421;28;20224;-56
2022/10/23 08:10:52;;;;;;;11.70;8.67;;;13.10;99.90;;;;;;5096229;28;20259;-56
2022/10/23 08:13:26;;;;;;;11.70;8.30;;;13.20;99.90;;;;;;5112840;28;20282;-56
2022/10/23 08:16:12;;;;;;;10.27;7.93;;;13.20;99.90;;;;;;5113159;28;20228;-56
2022/10/23 08:19:04;;;;;;;12.23;7.87;;;13.10;99.90;;;;;;5092010;28;20237;-56
2022/10/23 08:21:34;;;;;;;13.07;7.97;;;13.10;99.90;;;;;;5099049;28;20742;-56
2022/10/23 08:24:05;;;;;;;11.07;7.70;;;13.20;99.90;;;;;;5093108;28;20260;-56
2022/10/23 08:26:33;;;;;;;9.77;7.13;;;13.20;99.90;;;;;;5093462;28;20237;-56
2022/10/23 08:29:01;;;;;;;10.13;7.83;;;13.20;99.90;;;;;;5075469;28;20240;-56
2022/10/23 08:31:29;;;;;;;9.97;7.77;;;13.20;99.90;;;;;;5092971;28;20237;-56
2022/10/23 08:34:27;;;;;;;10.27;7.23;;;13.30;99.90;;;;;;5079497;28;20324;-55
2022/10/23 08:36:55;;;;;;;7.17;6.47;;;13.30;99.90;;;;;;5077566;28;20689;-56
2022/10/23 08:39:25;;;;;;;13.23;7.27;;;13.40;99.90;;;;;;5075455;28;20230;-56
2022/10/23 08:42:20;;;;;;;10.10;6.77;;;13.50;99.90;;;;;;5075101;28;20256;-56
2022/10/23 08:44:58;;;;;;;10.83;7.17;;;13.60;99.90;;;;;;5091833;28;20221;-56
2022/10/23 08:47:33;;;;;;;9.37;7.30;;;13.60;99.90;;;;;;5074824;28;20293;-56
2022/10/23 08:50:14;;;;;;;9.33;6.83;;;13.70;99.90;;;;;;5092914;28;20814;-56
2022/10/23 08:52:49;;;;;;;10.43;6.77;;;13.80;99.90;;;;;;5101228;28;20227;-56
2022/10/23 08:55:24;;;;;;;8.27;6.60;;;13.80;99.90;;;;;;5093333;28;20580;-56
2022/10/23 08:57:58;;;;;;;9.53;6.43;;;13.90;99.90;;;;;;5093067;28;20248;-56
2022/10/23 09:00:27;;;;;;;11.10;7.10;;;14.00;99.90;;;;;;5092661;28;20691;-56
2022/10/23 09:02:56;;;;;;;11.10;6.77;;;14.00;99.90;;;;;;5093038;28;20221;-56
2022/10/23 09:05:30;;;;;;;9.77;6.83;;;14.10;99.90;;;;;;5093081;28;20319;-55
2022/10/23 09:08:12;;;;;;;7.53;6.30;;;14.30;99.90;;;;;;5092810;28;20214;-56
2022/10/23 09:11:01;;;;;;;9.37;6.07;;;14.40;99.90;;;;;;5092929;28;20236;-54
2022/10/23 09:13:50;;;;;;;11.27;5.40;;;14.50;99.90;;;;;;5092855;28;20723;-55
2022/10/23 09:16:34;;;;;;;7.03;5.20;;;14.60;99.90;;;;;;5059894;28;20755;-56
2022/10/23 09:19:03;;;;;;;6.97;4.77;;;14.60;99.90;;;;;;5094685;28;20279;-56
2022/10/23 09:21:35;;;;;;;7.10;4.80;;;14.70;99.90;;;;;;5097207;28;20268;-56
2022/10/23 09:24:03;;;;;;;7.03;5.13;;;14.80;99.90;;;;;;5092905;28;20705;-56
2022/10/23 09:26:33;;;;;;;8.47;5.63;;;14.80;99.90;;;;;;5091262;28;20244;-56
2022/10/23 09:29:14;;;;;;;13.03;5.10;;;14.80;99.90;;;;;;5092603;28;20226;-56
2022/10/23 09:31:48;;;;;;;8.50;5.20;;;14.80;99.90;;;;;;5093825;28;20241;-56
2022/10/23 09:34:19;;;;;;;8.13;4.90;;;14.90;99.90;;;;;;5097001;28;20223;-56
2022/10/23 09:36:51;;;;;;;5.77;4.90;;;14.90;99.90;;;;;;5096641;28;20281;-56
2022/10/23 09:39:23;;;;;;;8.17;5.03;;;14.90;99.90;;;;;;5096874;28;20766;-56
2022/10/23 09:41:53;;;;;;;9.67;5.57;;;15.00;99.90;;;;;;5096688;28;20704;-56
2022/10/23 09:44:25;;;;;;;9.97;5.17;;;15.10;99.90;;;;;;5096862;28;20230;-56
2022/10/23 09:46:58;;;;;;;8.13;4.90;;;15.20;99.90;;;;;;5095418;28;20226;-55
2022/10/23 09:49:28;;;;;;;9.87;5.20;;;15.10;99.90;;;;;;5096274;28;20229;-56
2022/10/23 09:52:02;;;;;;;10.83;5.50;;;15.20;99.90;;;;;;5104904;28;20224;-56
2022/10/23 09:54:33;;;;;;;5.80;4.87;;;15.30;99.90;;;;;;5096362;28;20225;-56
2022/10/23 09:57:23;;;;;;;6.83;4.63;;;15.40;99.90;;;;;;5096534;28;20704;-56
2022/10/23 09:59:52;;;;;;;9.80;4.50;;;15.50;99.90;;;;;;5107865;28;20623;-56
2022/10/23 10:02:27;;;;;;;7.50;4.57;;;15.60;99.90;;;;;;5098119;28;20705;-56
2022/10/23 10:05:23;;;;;;;5.43;4.33;;;15.70;99.90;;;;;;5116421;28;20265;-56
2022/10/23 10:07:57;;;;;;;6.87;4.53;;;15.70;99.90;;;;;;5116921;28;20315;-56
2022/10/23 10:10:28;;;;;;;7.77;4.30;;;15.80;99.90;;;;;;5116864;28;20696;-55
2022/10/23 10:13:00;;;;;;;8.07;4.67;;;15.90;99.90;;;;;;5116877;28;20228;-57
2022/10/23 10:15:34;;;;;;;8.30;4.70;;;15.90;99.90;;;;;;5116287;28;20222;-56
2022/10/23 10:18:12;;;;;;;7.43;5.13;;;15.90;99.90;;;;;;5116309;28;20320;-56
2022/10/23 10:21:03;;;;;;;7.93;4.53;;;16.00;99.90;;;;;;5100964;28;20237;-57
2022/10/23 10:23:38;;;;;;;5.60;3.90;;;16.00;99.90;;;;;;5103331;28;20283;-56
2022/10/23 10:26:17;;;;;;;6.53;3.90;;;16.00;99.90;;;;;;5115025;28;20225;-57
2022/10/23 10:28:58;;;;;;;8.47;4.20;;;16.20;99.90;;;;;;5116369;28;20689;-56
2022/10/23 10:31:34;;;;;;;8.40;3.80;;;16.20;99.90;;;;;;5115787;28;20700;-56
2022/10/23 10:34:12;;;;;;;7.13;3.93;;;16.50;99.90;;;;;;5116506;28;20225;-56
2022/10/23 10:36:49;;;;;;;6.17;3.73;;;16.70;99.90;;;;;;5114681;28;20308;-57
2022/10/23 10:39:27;;;;;;;8.43;3.57;;;16.70;99.90;;;;;;5116105;28;20237;-57
2022/10/23 10:42:22;;;;;;;4.87;3.43;;;16.70;99.90;;;;;;5112426;28;20214;-56
2022/10/23 10:45:04;;;;;;;6.73;3.20;;;16.80;99.90;;;;;;5075539;28;20709;-56
2022/10/23 10:47:44;;;;;;;6.80;3.50;;;16.70;99.90;;;;;;5075150;28;20227;-56
2022/10/23 10:50:19;;;;;;;7.83;3.60;;;16.70;99.90;;;;;;5090809;28;20226;-56
2022/10/23 10:53:22;;;;;;;6.77;2.97;;;16.90;99.90;;;;;;5107752;28;20265;-57
2022/10/23 10:55:53;;;;;;;4.60;2.97;;;16.90;99.90;;;;;;5116188;28;20275;-56
2022/10/23 10:58:28;;;;;;;7.67;2.87;;;17.00;99.90;;;;;;5115953;28;20230;-57
2022/10/23 11:01:01;;;;;;;8.33;3.00;;;17.00;99.90;;;;;;5115469;28;20232;-55
2022/10/23 11:03:37;;;;;;;7.07;2.80;;;16.90;99.90;;;;;;5113885;28;20689;-56
2022/10/23 11:06:13;;;;;;;6.10;2.70;;;16.90;99.90;;;;;;5115878;28;20300;-56
2022/10/23 11:08:41;;;;;;;6.43;2.77;;;16.90;99.90;;;;;;5115628;28;20222;-57
2022/10/23 11:11:30;;;;;;;7.60;3.40;;;17.00;99.90;;;;;;5115580;28;20316;-56
2022/10/23 11:13:58;;;;;;;6.63;2.37;;;17.00;99.90;;;;;;5115459;28;20224;-57
2022/10/23 11:16:32;;;;;;;7.47;2.40;;;16.90;99.90;;;;;;5115566;28;20226;-57
2022/10/23 11:19:06;;;;;;;5.77;2.60;;;17.10;99.90;;;;;;5115316;28;20286;-56
2022/10/23 11:21:44;;;;;;;5.33;2.63;;;17.20;99.90;;;;;;5107042;28;20252;-57
2022/10/23 11:24:35;;;;;;;9.27;3.63;;;17.30;99.90;;;;;;5074631;28;20637;-57
2022/10/23 11:27:18;;;;;;;6.50;2.60;;;17.20;99.90;;;;;;5074808;28;20234;-57
2022/10/23 11:30:12;;;;;;;5.87;2.80;;;17.20;99.90;;;;;;5074348;28;20215;-57
2022/10/23 11:33:11;;;;;;;7.47;3.63;;;17.30;99.90;;;;;;5074483;28;20241;-57
2022/10/23 11:35:59;;;;;;;10.20;3.37;;;17.30;99.90;;;;;;5074266;28;20794;-57
2022/10/23 11:38:31;;;;;;;5.53;2.90;;;17.40;99.90;;;;;;5074574;28;20646;-56
2022/10/23 11:41:01;;;;;;;6.63;2.57;;;17.40;99.90;;;;;;5074552;28;20231;-57
2022/10/23 11:43:32;;;;;;;5.87;2.80;;;17.50;99.90;;;;;;5074435;28;20228;-56
2022/10/23 11:46:12;;;;;;;5.63;2.63;;;17.50;99.90;;;;;;5074038;28;20215;-57
2022/10/23 11:48:43;;;;;;;7.00;3.17;;;17.50;99.90;;;;;;5074280;28;20220;-57
2022/10/23 11:51:28;;;;;;;7.40;3.50;;;17.50;99.90;;;;;;5097535;28;20231;-57
2022/10/23 11:54:23;;;;;;;4.33;3.93;;;17.40;99.90;;;;;;5095375;28;20750;-57
2022/10/23 11:56:54;;;;;;;6.50;3.57;;;17.40;99.90;;;;;;5094293;28;20625;-57
2022/10/23 11:59:27;;;;;;;9.00;3.67;;;17.40;99.90;;;;;;5101567;28;20226;-57
2022/10/23 12:01:58;;;;;;;5.27;2.77;;;17.50;99.90;;;;;;5114076;28;20240;-57
2022/10/23 12:04:32;;;;;;;7.93;3.10;;;17.60;99.90;;;;;;5114355;28;20218;-56
2022/10/23 12:07:04;;;;;;;7.47;2.60;;;17.60;99.90;;;;;;5114331;28;20220;-57
2022/10/23 12:09:43;;;;;;;5.70;2.47;;;17.70;99.90;;;;;;5114138;28;20236;-57
2022/10/23 12:12:25;;;;;;;4.87;2.20;;;17.70;99.90;;;;;;5096268;28;20581;-57
2022/10/23 12:14:53;;;;;;;5.10;2.53;;;17.80;99.90;;;;;;5114149;28;20320;-57
2022/10/23 12:17:35;;;;;;;7.07;2.70;;;17.80;99.90;;;;;;5114387;28;20651;-57
2022/10/23 12:20:24;;;;;;;11.50;7.10;;;17.80;99.90;;;;;;5103964;28;20238;-57
2022/10/23 12:23:05;;;;;;;7.73;3.93;;;17.80;99.90;;;;;;5102331;28;20230;-57
2022/10/23 12:25:41;;;;;;;7.73;3.10;;;17.70;99.90;;;;;;5093681;28;20233;-57
2022/10/23 12:28:21;;;;;;;7.17;3.33;;;17.80;99.90;;;;;;5093747;28;20218;-56
2022/10/23 12:30:59;;;;;;;7.20;3.67;;;17.80;99.90;;;;;;5093152;28;20226;-57
2022/10/23 12:33:32;;;;;;;6.63;3.93;;;17.90;99.90;;;;;;5092267;28;20243;-57
2022/10/23 12:36:16;;;;;;;6.80;2.60;;;17.90;99.90;;;;;;5093613;28;20720;-57
2022/10/23 12:38:46;;;;;;;4.67;2.60;;;17.90;99.90;;;;;;5093448;28;20234;-57
2022/10/23 12:41:16;;;;;;;9.03;3.23;;;17.90;99.90;;;;;;5093616;28;20323;-57
2022/10/23 12:43:52;;;;;;;7.07;2.80;;;18.00;99.90;;;;;;5058689;28;20228;-57
2022/10/23 12:46:32;;;;;;;5.77;2.67;;;18.00;99.90;;;;;;5092665;28;20584;-57
2022/10/23 12:49:03;;;;;;;5.17;2.93;;;18.10;99.90;;;;;;5094849;28;20294;-57
2022/10/23 12:51:34;;;;;;;3.87;2.40;;;18.10;99.90;;;;;;5097909;28;20223;-57
2022/10/23 12:54:03;;;;;;;8.00;2.93;;;18.20;99.90;;;;;;5093351;28;20242;-57
2022/10/23 12:56:36;;;;;;;9.43;2.70;;;18.10;99.90;;;;;;5093174;28;20238;-57
2022/10/23 12:59:10;;;;;;;5.13;2.83;;;18.10;99.90;;;;;;5093028;28;20227;-57
2022/10/23 13:01:38;;;;;;;4.93;3.10;;;18.10;99.90;;;;;;5092352;28;20241;-57
2022/10/23 13:04:16;;;;;;;6.10;3.27;;;18.00;99.90;;;;;;5092882;28;20320;-57
2022/10/23 13:06:48;;;;;;;7.93;3.70;;;17.90;99.90;;;;;;5092708;28;21195;-58
2022/10/23 13:09:22;;;;;;;5.53;2.90;;;17.90;99.90;;;;;;5093089;28;20219;-57
2022/10/23 13:12:19;;;;;;;8.13;3.20;;;17.90;99.90;;;;;;5093170;28;20230;-57
2022/10/23 13:14:57;;;;;;;7.33;2.60;;;17.90;99.90;;;;;;5092914;28;20233;-57
2022/10/23 13:17:36;;;;;;;5.23;2.70;;;17.80;99.90;;;;;;5092684;28;20228;-57